Terminal Aerodrome Forecast
Issued by NWS Lake Charles, LA

Home | Current Version | Previous Version | Text Only | Print | Product List | Glossary On
Versions: 1 2 3 4 5 6 7 8 9 10 11 12 13 14 15
000
FTUS44 KLCH 311952 AAA
TAFLCH
TAF AMD
KLCH 311952Z 3120/0118 18008KT P6SM FEW035 SCT200
     FM010100 VRB03KT P6SM SCT200
     FM011400 13005KT P6SM SCT025 SCT200=

USA.gov is the U.S. government's official web portal to all federal, state and local government web resources and services.